createdAt,value
2022-11-30T00:00:16.034Z,101748.09
2022-11-30T00:01:20.677Z,101748.78
2022-11-30T00:02:22.378Z,101742.56
2022-11-30T00:03:25.495Z,101749.66
2022-11-30T00:04:27.070Z,101750.59
2022-11-30T00:05:30.934Z,101748.88
2022-11-30T00:06:32.422Z,101746.22
2022-11-30T00:07:35.553Z,101739.25
2022-11-30T00:08:37.216Z,101748.88
2022-11-30T00:09:39.738Z,101741.78
2022-11-30T00:10:41.748Z,101749.66
2022-11-30T00:11:44.202Z,101744.38
2022-11-30T00:12:45.788Z,101744.38
2022-11-30T00:13:49.000Z,101745.13
2022-11-30T00:14:50.960Z,101747.75
2022-11-30T00:15:53.869Z,101744.19
2022-11-30T00:16:55.456Z,101746.72
2022-11-30T00:17:58.468Z,101742.31
2022-11-30T00:19:00.005Z,101744.00
2022-11-30T00:20:02.491Z,101741.31
2022-11-30T00:21:08.580Z,101740.44
2022-11-30T00:22:11.198Z,101745.72
2022-11-30T00:23:12.725Z,101745.81
2022-11-30T00:24:15.313Z,101744.94
2022-11-30T00:25:16.984Z,101744.94
2022-11-30T00:26:22.693Z,101752.03
2022-11-30T00:27:24.205Z,101744.19
2022-11-30T00:28:26.768Z,101745.91
2022-11-30T00:29:28.356Z,101745.91
2022-11-30T00:30:31.590Z,101747.69
2022-11-30T00:31:33.158Z,101756.50
2022-11-30T00:32:35.678Z,101748.63
2022-11-30T00:33:38.545Z,101744.38
2022-11-30T00:34:41.062Z,101754.16
2022-11-30T00:35:44.255Z,101750.69
2022-11-30T00:36:48.431Z,101743.69
2022-11-30T00:37:49.917Z,101737.53
2022-11-30T00:38:52.911Z,101739.25
2022-11-30T00:39:54.421Z,101744.53
2022-11-30T00:40:56.892Z,101740.00
2022-11-30T00:41:58.368Z,101736.50
2022-11-30T00:43:00.843Z,101741.72
2022-11-30T00:44:02.670Z,101741.72
2022-11-30T00:45:05.854Z,101742.47
2022-11-30T00:46:09.281Z,101742.47
2022-11-30T00:47:11.880Z,101742.41
2022-11-30T00:48:13.642Z,101745.06
2022-11-30T00:49:16.356Z,101740.63
2022-11-30T00:50:17.856Z,101738.72
2022-11-30T00:51:20.402Z,101742.13
2022-11-30T00:52:23.282Z,101739.31
2022-11-30T00:53:25.781Z,101740.09
2022-11-30T00:54:27.523Z,101741.81
2022-11-30T00:55:31.752Z,101745.22
2022-11-30T00:56:33.273Z,101741.63
2022-11-30T00:57:35.745Z,101745.97
2022-11-30T00:58:37.361Z,101749.47
2022-11-30T00:59:39.828Z,101747.69
2022-11-30T01:00:41.461Z,101750.31
2022-11-30T01:01:43.981Z,101745.03
2022-11-30T01:02:45.837Z,101751.19
2022-11-30T01:03:48.541Z,101738.03
2022-11-30T01:04:50.037Z,101739.75
2022-11-30T01:05:53.265Z,101743.31
2022-11-30T01:06:54.899Z,101736.34
2022-11-30T01:08:00.566Z,101739.06
2022-11-30T01:09:03.002Z,101736.53
2022-11-30T01:10:06.543Z,101747.94
2022-11-30T01:11:12.222Z,101744.47
2022-11-30T01:12:14.813Z,101750.56
2022-11-30T01:13:16.414Z,101747.09
2022-11-30T01:14:18.909Z,101748.97
2022-11-30T01:15:20.503Z,101745.38
2022-11-30T01:16:26.213Z,101751.59
2022-11-30T01:17:27.996Z,101750.84
2022-11-30T01:18:30.489Z,101748.22
2022-11-30T01:19:32.049Z,101749.13
2022-11-30T01:20:34.859Z,101751.78
2022-11-30T01:21:36.368Z,101751.88
2022-11-30T01:22:39.074Z,101751.03
2022-11-30T01:23:42.408Z,101751.09
2022-11-30T01:24:45.137Z,101749.31
2022-11-30T01:25:53.867Z,101744.00
2022-11-30T01:26:56.408Z,101751.88
2022-11-30T01:27:57.910Z,101751.88
2022-11-30T01:29:00.434Z,101757.94
2022-11-30T01:30:01.983Z,101752.72
2022-11-30T01:31:07.072Z,101754.41
2022-11-30T01:32:08.652Z,101751.78
2022-11-30T01:33:11.150Z,101756.13
2022-11-30T01:34:12.709Z,101754.41
2022-11-30T01:35:15.410Z,101760.41
2022-11-30T01:36:19.001Z,101762.97
2022-11-30T01:37:21.483Z,101751.44
2022-11-30T01:38:23.580Z,101751.44
2022-11-30T01:39:27.489Z,101752.28
2022-11-30T01:40:29.048Z,101752.22
2022-11-30T01:41:33.178Z,101752.28
2022-11-30T01:42:34.797Z,101749.66
2022-11-30T01:43:42.514Z,101753.22
2022-11-30T01:44:53.408Z,101752.41
2022-11-30T01:45:56.244Z,101752.41
2022-11-30T01:47:01.018Z,101749.75
2022-11-30T01:48:05.408Z,101750.50
2022-11-30T01:49:16.065Z,101747.84
2022-11-30T01:50:21.716Z,101753.03
2022-11-30T01:51:23.439Z,101760.97
2022-11-30T01:52:29.867Z,101754.88
2022-11-30T01:53:31.364Z,101752.97
2022-11-30T01:54:39.782Z,101748.63
2022-11-30T01:55:44.842Z,101763.56
2022-11-30T01:56:51.680Z,101760.91
2022-11-30T01:57:57.934Z,101763.63
2022-11-30T01:59:01.217Z,101760.16
2022-11-30T02:00:07.735Z,101763.72
2022-11-30T02:01:13.818Z,101766.38
2022-11-30T02:02:16.605Z,101767.22
2022-11-30T02:03:27.267Z,101766.38
2022-11-30T02:04:31.591Z,101765.44
2022-11-30T02:05:37.473Z,101765.44
2022-11-30T02:06:39.492Z,101764.47
2022-11-30T02:07:42.941Z,101764.47
2022-11-30T02:08:44.765Z,101763.56
2022-11-30T02:09:51.379Z,101759.19
2022-11-30T02:10:55.626Z,101759.19
2022-11-30T02:11:58.363Z,101762.81
2022-11-30T02:13:20.296Z,101756.47
2022-11-30T02:14:30.917Z,101758.25
2022-11-30T02:15:43.946Z,101759.19
2022-11-30T02:16:57.217Z,101759.19
2022-11-30T02:18:09.306Z,101754.88
2022-11-30T02:19:32.120Z,101756.66
2022-11-30T02:21:05.729Z,101754.94
2022-11-30T02:22:15.508Z,101758.50
2022-11-30T02:23:55.859Z,101751.53
2022-11-30T02:25:08.358Z,101756.72
2022-11-30T02:26:25.280Z,101751.53
2022-11-30T02:27:45.142Z,101754.25
2022-11-30T02:29:04.839Z,101753.38
2022-11-30T02:30:08.926Z,101757.00
2022-11-30T02:31:17.744Z,101755.34
2022-11-30T02:32:25.361Z,101754.41
2022-11-30T02:33:32.860Z,101749.31
2022-11-30T02:34:36.916Z,101744.78
2022-11-30T02:35:51.554Z,101752.72
2022-11-30T02:36:59.943Z,101748.28
2022-11-30T02:38:04.133Z,101746.59
2022-11-30T02:39:07.228Z,101751.88
2022-11-30T02:40:10.938Z,101747.41
2022-11-30T02:41:13.426Z,101747.41
2022-11-30T02:42:15.360Z,101753.50
2022-11-30T02:43:20.017Z,101743.84
2022-11-30T02:44:24.316Z,101744.69
2022-11-30T02:45:35.319Z,101744.69
2022-11-30T02:46:46.985Z,101744.69
2022-11-30T02:47:56.305Z,101750.00
2022-11-30T02:49:06.132Z,101752.53
2022-11-30T02:50:15.019Z,101744.59
2022-11-30T02:51:20.008Z,101751.72
2022-11-30T02:52:26.976Z,101752.53
2022-11-30T02:53:29.954Z,101756.13
2022-11-30T02:54:32.251Z,101748.22
2022-11-30T02:55:34.936Z,101752.63
2022-11-30T02:56:36.458Z,101749.13
2022-11-30T02:57:38.921Z,101744.69
2022-11-30T02:58:41.104Z,101744.78
2022-11-30T02:59:45.149Z,101747.41
2022-11-30T03:00:47.099Z,101745.72
2022-11-30T03:01:49.663Z,101744.00
2022-11-30T03:02:51.221Z,101744.94
2022-11-30T03:03:53.734Z,101749.25
2022-11-30T03:04:55.217Z,101736.84
2022-11-30T03:05:57.794Z,101750.00
2022-11-30T03:06:59.327Z,101748.97
2022-11-30T03:08:01.868Z,101748.09
2022-11-30T03:09:03.414Z,101748.97
2022-11-30T03:10:07.852Z,101755.09
2022-11-30T03:11:09.367Z,101747.16
2022-11-30T03:12:12.233Z,101738.38
2022-11-30T03:13:13.909Z,101744.47
2022-11-30T03:14:16.389Z,101739.16
2022-11-30T03:15:19.231Z,101751.44
2022-11-30T03:16:21.760Z,101742.63
2022-11-30T03:17:23.384Z,101747.09
2022-11-30T03:18:25.964Z,101747.09
2022-11-30T03:19:27.479Z,101746.25
2022-11-30T03:20:29.954Z,101747.09
2022-11-30T03:21:31.520Z,101746.25
2022-11-30T03:22:34.013Z,101747.94
2022-11-30T03:23:35.830Z,101741.81
2022-11-30T03:24:38.351Z,101747.09
2022-11-30T03:25:39.894Z,101748.03
2022-11-30T03:26:42.483Z,101747.09
2022-11-30T03:27:44.010Z,101756.72
2022-11-30T03:28:46.672Z,101752.41
2022-11-30T03:29:48.425Z,101754.25
2022-11-30T03:30:52.354Z,101747.41
2022-11-30T03:31:54.435Z,101751.59
2022-11-30T03:33:06.757Z,101756.03
2022-11-30T03:34:08.322Z,101757.00
2022-11-30T03:35:10.981Z,101759.66
2022-11-30T03:36:13.082Z,101753.50
2022-11-30T03:37:15.604Z,101759.72
2022-11-30T03:38:17.259Z,101758.00
2022-11-30T03:39:20.062Z,101754.59
2022-11-30T03:40:21.631Z,101759.94
2022-11-30T03:41:24.187Z,101760.13
2022-11-30T03:42:25.741Z,101751.50
2022-11-30T03:43:28.587Z,101753.41
2022-11-30T03:44:30.198Z,101760.56
2022-11-30T03:45:32.674Z,101757.94
2022-11-30T03:46:35.659Z,101758.84
2022-11-30T03:47:38.313Z,101755.44
2022-11-30T03:48:41.260Z,101756.38
2022-11-30T03:49:43.876Z,101768.00
2022-11-30T03:50:49.586Z,101754.94
2022-11-30T03:51:52.066Z,101765.59
2022-11-30T03:52:53.598Z,101765.69
2022-11-30T03:53:56.216Z,101763.97
2022-11-30T03:54:57.704Z,101763.97
2022-11-30T03:56:01.969Z,101764.81
2022-11-30T03:57:03.629Z,101778.91
2022-11-30T03:58:06.114Z,101762.19
2022-11-30T03:59:08.757Z,101768.22
2022-11-30T04:00:11.562Z,101770.88
2022-11-30T04:01:17.591Z,101764.66
2022-11-30T04:02:20.828Z,101771.72
2022-11-30T04:03:23.623Z,101761.16
2022-11-30T04:04:25.234Z,101770.88
2022-11-30T04:05:27.725Z,101762.94
2022-11-30T04:06:29.272Z,101765.50
2022-11-30T04:07:31.900Z,101773.34
2022-11-30T04:08:34.223Z,101771.63
2022-11-30T04:09:36.687Z,101768.97
2022-11-30T04:10:38.765Z,101777.78
2022-11-30T04:11:41.283Z,101766.34
2022-11-30T04:12:42.791Z,101777.78
2022-11-30T04:13:45.436Z,101772.47
2022-11-30T04:14:49.813Z,101776.91
2022-11-30T04:15:54.021Z,101776.00
2022-11-30T04:16:55.703Z,101779.41
2022-11-30T04:17:59.566Z,101775.06
2022-11-30T04:19:02.345Z,101774.19
2022-11-30T04:20:04.837Z,101777.69
2022-11-30T04:21:08.182Z,101776.91
2022-11-30T04:22:09.715Z,101777.78
2022-11-30T04:23:13.274Z,101773.34
2022-11-30T04:24:14.817Z,101780.41
2022-11-30T04:25:17.612Z,101781.38
2022-11-30T04:26:19.136Z,101780.53
2022-11-30T04:27:21.621Z,101780.59
2022-11-30T04:28:23.584Z,101772.66
2022-11-30T04:29:26.112Z,101787.66
2022-11-30T04:30:28.245Z,101784.09
2022-11-30T04:31:30.813Z,101786.84
2022-11-30T04:32:32.369Z,101789.31
2022-11-30T04:33:36.449Z,101781.44
2022-11-30T04:34:37.939Z,101791.09
2022-11-30T04:35:42.588Z,101794.59
2022-11-30T04:36:44.121Z,101788.44
2022-11-30T04:37:46.599Z,101791.09
2022-11-30T04:38:48.302Z,101789.31
2022-11-30T04:39:50.792Z,101790.22
2022-11-30T04:40:52.644Z,101789.38
2022-11-30T04:41:55.404Z,101788.44
2022-11-30T04:42:56.951Z,101792.94
2022-11-30T04:43:59.419Z,101803.53
2022-11-30T04:45:00.918Z,101795.69
2022-11-30T04:46:03.523Z,101797.47
2022-11-30T04:47:05.029Z,101795.75
2022-11-30T04:48:08.513Z,101792.25
2022-11-30T04:49:11.399Z,101799.34
2022-11-30T04:50:13.994Z,101799.34
2022-11-30T04:51:15.555Z,101791.44
2022-11-30T04:52:18.146Z,101797.63
2022-11-30T04:53:19.640Z,101800.28
2022-11-30T04:54:23.247Z,101795.91
2022-11-30T04:55:24.811Z,101795.84
2022-11-30T04:56:27.298Z,101788.00
2022-11-30T04:57:28.821Z,101793.28
2022-11-30T04:58:31.341Z,101798.56
2022-11-30T04:59:32.901Z,101797.72
2022-11-30T05:00:36.615Z,101787.13
2022-11-30T05:01:38.220Z,101790.72
2022-11-30T05:02:40.736Z,101788.16
2022-11-30T05:03:46.552Z,101800.44
2022-11-30T05:04:51.051Z,101794.31
2022-11-30T05:05:52.827Z,101802.31
2022-11-30T05:06:55.307Z,101794.38
2022-11-30T05:07:58.825Z,101800.50
2022-11-30T05:09:01.703Z,101797.00
2022-11-30T05:10:05.325Z,101795.31
2022-11-30T05:11:07.874Z,101797.97
2022-11-30T05:12:09.467Z,101803.25
2022-11-30T05:13:11.973Z,101805.03
2022-11-30T05:14:13.592Z,101805.03
2022-11-30T05:15:16.199Z,101805.91
2022-11-30T05:16:17.736Z,101807.59
2022-11-30T05:17:20.287Z,101804.94
2022-11-30T05:18:22.163Z,101800.44
2022-11-30T05:19:24.697Z,101804.81
2022-11-30T05:20:27.607Z,101802.16
2022-11-30T05:21:30.525Z,101809.13
2022-11-30T05:22:34.843Z,101803.00
2022-11-30T05:23:37.351Z,101801.22
2022-11-30T05:24:38.949Z,101804.72
2022-11-30T05:25:41.434Z,101803.78
2022-11-30T05:26:42.989Z,101802.00
2022-11-30T05:27:45.501Z,101813.41
2022-11-30T05:28:47.221Z,101810.69
2022-11-30T05:29:49.697Z,101810.69
2022-11-30T05:30:51.245Z,101808.81
2022-11-30T05:31:53.780Z,101810.53
2022-11-30T05:32:55.314Z,101812.25
2022-11-30T05:33:57.951Z,101813.09
2022-11-30T05:34:59.759Z,101813.09
2022-11-30T05:36:10.152Z,101811.38
2022-11-30T05:37:12.287Z,101817.53
2022-11-30T05:38:14.846Z,101814.03
2022-11-30T05:39:16.396Z,101816.75
2022-11-30T05:40:19.109Z,101816.84
2022-11-30T05:41:20.820Z,101807.28
2022-11-30T05:42:28.121Z,101810.69
2022-11-30T05:43:29.674Z,101807.97
2022-11-30T05:44:32.163Z,101814.09
2022-11-30T05:45:33.658Z,101807.13
2022-11-30T05:46:40.789Z,101809.75
2022-11-30T05:47:42.630Z,101809.94
2022-11-30T05:48:45.119Z,101803.84
2022-11-30T05:49:49.482Z,101807.44
2022-11-30T05:50:51.928Z,101796.94
2022-11-30T05:51:54.806Z,101805.81
2022-11-30T05:52:57.755Z,101805.91
2022-11-30T05:53:59.474Z,101807.75
2022-11-30T05:55:02.002Z,101806.06
2022-11-30T05:56:04.539Z,101807.91
2022-11-30T05:57:07.045Z,101811.53
2022-11-30T05:58:08.592Z,101818.59
2022-11-30T05:59:11.636Z,101813.38
2022-11-30T06:00:14.602Z,101816.97
2022-11-30T06:01:19.957Z,101817.91
2022-11-30T06:02:26.693Z,101819.69
2022-11-30T06:03:32.117Z,101826.75
2022-11-30T06:04:34.220Z,101817.09
2022-11-30T06:05:37.199Z,101820.69
2022-11-30T06:06:38.894Z,101819.84
2022-11-30T06:07:42.786Z,101819.16
2022-11-30T06:08:45.847Z,101820.88
2022-11-30T06:09:48.498Z,101821.78
2022-11-30T06:10:50.254Z,101825.34
2022-11-30T06:11:53.007Z,101821.03
2022-11-30T06:12:54.505Z,101830.72
2022-11-30T06:13:57.271Z,101832.53
2022-11-30T06:14:58.782Z,101822.00
2022-11-30T06:16:01.638Z,101821.19
2022-11-30T06:17:03.406Z,101823.03
2022-11-30T06:18:07.165Z,101829.19
2022-11-30T06:19:08.693Z,101832.75
2022-11-30T06:20:12.028Z,101828.31
2022-11-30T06:21:13.541Z,101827.41
2022-11-30T06:22:16.043Z,101824.75
2022-11-30T06:23:18.950Z,101825.63
2022-11-30T06:24:21.460Z,101822.09
2022-11-30T06:25:23.415Z,101829.19
2022-11-30T06:26:26.136Z,101821.34
2022-11-30T06:27:30.959Z,101820.50
2022-11-30T06:28:33.889Z,101823.19
2022-11-30T06:29:36.366Z,101824.91
2022-11-30T06:30:38.205Z,101822.34
2022-11-30T06:31:40.947Z,101825.94
2022-11-30T06:32:44.751Z,101823.28
2022-11-30T06:33:47.268Z,101821.47
2022-11-30T06:34:49.076Z,101824.13
2022-11-30T06:35:52.489Z,101819.78
2022-11-30T06:37:01.336Z,101829.41
2022-11-30T06:38:03.879Z,101818.94
2022-11-30T06:39:08.765Z,101824.28
2022-11-30T06:40:14.472Z,101827.09
2022-11-30T06:41:16.038Z,101828.97
2022-11-30T06:42:19.552Z,101827.25
2022-11-30T06:43:22.127Z,101826.38
2022-11-30T06:44:23.636Z,101824.75
2022-11-30T06:45:26.244Z,101825.69
2022-11-30T06:46:29.010Z,101826.66
2022-11-30T06:47:30.557Z,101828.44
2022-11-30T06:48:33.789Z,101832.84
2022-11-30T06:49:35.320Z,101835.50
2022-11-30T06:50:38.051Z,101832.84
2022-11-30T06:51:39.637Z,101840.00
2022-11-30T06:52:42.222Z,101834.72
2022-11-30T06:53:44.397Z,101829.44
2022-11-30T06:54:48.514Z,101833.94
2022-11-30T06:55:51.330Z,101834.88
2022-11-30T06:56:53.816Z,101831.44
2022-11-30T06:57:56.335Z,101836.72
2022-11-30T06:58:58.925Z,101834.19
2022-11-30T07:00:00.471Z,101833.31
2022-11-30T07:01:05.873Z,101834.19
2022-11-30T07:02:13.075Z,101828.91
2022-11-30T07:03:19.890Z,101828.91
2022-11-30T07:04:21.672Z,101842.97
2022-11-30T07:05:24.621Z,101831.44
2022-11-30T07:06:26.310Z,101832.31
2022-11-30T07:07:30.592Z,101838.44
2022-11-30T07:08:33.500Z,101836.56
2022-11-30T07:09:37.657Z,101840.16
2022-11-30T07:10:42.892Z,101838.34
2022-11-30T07:11:44.451Z,101838.28
2022-11-30T07:12:47.214Z,101840.00
2022-11-30T07:13:48.821Z,101836.41
2022-11-30T07:14:52.693Z,101840.78
2022-11-30T07:15:54.277Z,101842.50
2022-11-30T07:16:56.741Z,101840.78
2022-11-30T07:18:00.430Z,101839.06
2022-11-30T07:19:02.920Z,101845.13
2022-11-30T07:20:05.630Z,101846.81
2022-11-30T07:21:08.415Z,101845.13
2022-11-30T07:22:09.946Z,101845.03
2022-11-30T07:23:30.026Z,101847.78
2022-11-30T07:24:50.701Z,101845.03
2022-11-30T07:26:07.594Z,101849.41
2022-11-30T07:27:10.196Z,101848.53
2022-11-30T07:28:11.700Z,101844.97
2022-11-30T07:29:14.206Z,101849.41
2022-11-30T07:30:16.173Z,101847.63
2022-11-30T07:31:21.438Z,101851.13
2022-11-30T07:32:23.146Z,101848.47
2022-11-30T07:33:25.844Z,101848.38
2022-11-30T07:34:28.769Z,101853.66
2022-11-30T07:35:30.340Z,101855.38
2022-11-30T07:36:32.826Z,101862.38
2022-11-30T07:37:34.369Z,101862.38
2022-11-30T07:38:37.059Z,101859.66
2022-11-30T07:39:39.582Z,101858.78
2022-11-30T07:40:41.373Z,101858.78
2022-11-30T07:41:45.380Z,101869.34
2022-11-30T07:42:47.861Z,101866.72
2022-11-30T07:43:50.385Z,101867.66
2022-11-30T07:44:57.055Z,101875.59
2022-11-30T07:46:02.133Z,101869.44
2022-11-30T07:47:04.644Z,101871.28
2022-11-30T07:48:06.435Z,101875.75
2022-11-30T07:49:10.936Z,101872.16
2022-11-30T07:50:12.474Z,101880.16
2022-11-30T07:51:16.947Z,101881.94
2022-11-30T07:52:18.482Z,101882.81
2022-11-30T07:53:20.968Z,101884.50
2022-11-30T07:54:22.752Z,101880.94
2022-11-30T07:55:25.250Z,101892.34
2022-11-30T07:56:29.040Z,101885.19
2022-11-30T07:57:32.025Z,101879.84
2022-11-30T07:58:35.203Z,101876.34
2022-11-30T07:59:36.711Z,101885.03
2022-11-30T08:00:39.739Z,101886.75
2022-11-30T08:01:42.446Z,101879.59
2022-11-30T08:02:44.180Z,101885.69
2022-11-30T08:03:46.922Z,101881.25
2022-11-30T08:04:50.944Z,101881.31
2022-11-30T08:05:52.786Z,101884.75
2022-11-30T08:06:55.363Z,101884.75
2022-11-30T08:07:57.100Z,101884.75
2022-11-30T08:09:02.175Z,101882.03
2022-11-30T08:10:04.826Z,101889.03
2022-11-30T08:11:09.078Z,101885.44
2022-11-30T08:12:11.619Z,101883.66
2022-11-30T08:13:14.650Z,101896.84
2022-11-30T08:14:17.420Z,101898.56
2022-11-30T08:15:20.777Z,101896.84
2022-11-30T08:16:25.391Z,101899.34
2022-11-30T08:17:26.924Z,101903.69
2022-11-30T08:18:29.494Z,101896.69
2022-11-30T08:19:31.982Z,101903.69
2022-11-30T08:20:33.500Z,101897.56
2022-11-30T08:21:37.915Z,101906.34
2022-11-30T08:22:40.542Z,101901.06
2022-11-30T08:23:43.987Z,101900.13
2022-11-30T08:24:46.656Z,101908.81
2022-11-30T08:25:48.211Z,101904.47
2022-11-30T08:26:51.935Z,101905.41
2022-11-30T08:27:53.463Z,101902.84
2022-11-30T08:28:58.887Z,101904.72
2022-11-30T08:30:00.415Z,101910.88
2022-11-30T08:31:06.449Z,101910.00
2022-11-30T08:32:09.063Z,101912.72
2022-11-30T08:33:14.465Z,101911.94
2022-11-30T08:34:17.056Z,101915.44
2022-11-30T08:35:18.608Z,101916.47
2022-11-30T08:36:22.985Z,101915.50
2022-11-30T08:37:25.835Z,101910.31
2022-11-30T08:38:28.199Z,101913.03
2022-11-30T08:39:31.715Z,101920.19
2022-11-30T08:40:33.288Z,101916.59
2022-11-30T08:41:36.638Z,101915.75
2022-11-30T08:42:39.109Z,101911.31
2022-11-30T08:43:40.887Z,101914.91
2022-11-30T08:44:44.710Z,101907.91
2022-11-30T08:45:46.270Z,101920.34
2022-11-30T08:46:51.941Z,101917.69
2022-11-30T08:47:55.344Z,101916.91
2022-11-30T08:49:13.007Z,101916.91
2022-11-30T08:50:19.700Z,101914.25
2022-11-30T08:51:22.611Z,101921.41
2022-11-30T08:52:25.467Z,101918.78
2022-11-30T08:53:27.064Z,101918.78
2022-11-30T08:54:29.606Z,101925.84
2022-11-30T08:55:32.145Z,101926.69
2022-11-30T08:56:34.613Z,101920.50
2022-11-30T08:57:37.068Z,101916.91
2022-11-30T08:58:41.354Z,101930.97
2022-11-30T08:59:44.451Z,101922.19
2022-11-30T09:00:46.928Z,101930.97
2022-11-30T09:01:48.439Z,101923.91
2022-11-30T09:02:51.304Z,101929.19
2022-11-30T09:03:55.642Z,101925.63
2022-11-30T09:04:58.176Z,101920.41
2022-11-30T09:06:04.222Z,101929.13
2022-11-30T09:07:06.700Z,101924.75
2022-11-30T09:08:09.470Z,101934.47
2022-11-30T09:09:11.019Z,101930.03
2022-11-30T09:10:16.873Z,101930.91
2022-11-30T09:11:19.968Z,101924.81
2022-11-30T09:12:22.435Z,101933.59
2022-11-30T09:13:24.492Z,101936.34
2022-11-30T09:14:27.323Z,101939.91
2022-11-30T09:15:31.414Z,101942.56
2022-11-30T09:16:33.018Z,101943.47
2022-11-30T09:17:35.963Z,101944.44
2022-11-30T09:18:38.966Z,101945.34
2022-11-30T09:19:41.405Z,101948.75
2022-11-30T09:20:42.876Z,101936.50
2022-11-30T09:21:51.189Z,101931.22
2022-11-30T09:22:54.690Z,101939.91
2022-11-30T09:23:57.290Z,101947.84
2022-11-30T09:24:59.780Z,101947.84
2022-11-30T09:26:03.065Z,101938.19
2022-11-30T09:27:05.532Z,101948.75
2022-11-30T09:28:12.162Z,101943.47
2022-11-30T09:29:14.986Z,101943.56
2022-11-30T09:30:17.796Z,101943.47
2022-11-30T09:31:23.302Z,101941.63
2022-11-30T09:32:25.827Z,101948.59
2022-11-30T09:33:27.403Z,101941.53
2022-11-30T09:34:29.892Z,101944.13
2022-11-30T09:35:32.350Z,101943.25
2022-11-30T09:36:36.466Z,101941.53
2022-11-30T09:37:40.165Z,101947.69
2022-11-30T09:38:42.373Z,101940.63
2022-11-30T09:39:44.834Z,101943.16
2022-11-30T09:40:47.621Z,101939.59
2022-11-30T09:42:27.671Z,101944.88
2022-11-30T09:43:41.949Z,101948.28
2022-11-30T09:44:52.175Z,101941.31
2022-11-30T09:45:58.472Z,101943.88
2022-11-30T09:47:10.661Z,101948.28
2022-11-30T09:48:29.941Z,101946.50
2022-11-30T09:49:36.882Z,101941.31
2022-11-30T09:50:43.075Z,101943.97
2022-11-30T09:51:47.979Z,101940.47
2022-11-30T09:52:52.299Z,101943.88
2022-11-30T09:53:58.720Z,101951.72
2022-11-30T09:55:06.542Z,101945.66
2022-11-30T09:56:19.852Z,101944.72
2022-11-30T09:57:28.224Z,101943.81
2022-11-30T09:58:48.083Z,101942.03
2022-11-30T09:59:55.828Z,101944.66
2022-11-30T10:01:01.247Z,101944.72
2022-11-30T10:02:18.077Z,101935.88
2022-11-30T10:03:23.977Z,101936.75
2022-11-30T10:04:28.466Z,101936.66
2022-11-30T10:05:46.486Z,101938.38
2022-11-30T10:07:00.339Z,101932.97
2022-11-30T10:08:20.442Z,101935.56
2022-11-30T10:09:34.093Z,101932.00
2022-11-30T10:10:43.121Z,101934.66
2022-11-30T10:11:54.636Z,101930.28
2022-11-30T10:13:07.588Z,101939.06
2022-11-30T10:14:32.128Z,101931.19
2022-11-30T10:15:46.570Z,101939.13
2022-11-30T10:16:58.381Z,101941.78
2022-11-30T10:18:15.801Z,101939.28
2022-11-30T10:19:35.111Z,101937.59
2022-11-30T10:21:03.723Z,101939.28
2022-11-30T10:22:15.604Z,101935.72
2022-11-30T10:23:36.909Z,101935.72
2022-11-30T10:24:57.761Z,101948.00
2022-11-30T10:26:07.218Z,101938.28
2022-11-30T10:27:17.558Z,101935.63
2022-11-30T10:28:48.618Z,101941.72
2022-11-30T10:29:52.104Z,101944.19
2022-11-30T10:30:55.031Z,101943.34
2022-11-30T10:32:00.740Z,101943.28
2022-11-30T10:33:15.330Z,101935.41
2022-11-30T10:34:22.256Z,101938.13
2022-11-30T10:35:35.276Z,101936.34
2022-11-30T10:36:42.967Z,101932.78
2022-11-30T10:37:47.605Z,101931.91
2022-11-30T10:38:53.958Z,101936.34
2022-11-30T10:40:02.436Z,101935.41
2022-11-30T10:41:11.272Z,101931.84
2022-11-30T10:42:20.772Z,101934.50
2022-11-30T10:43:30.024Z,101933.53
2022-11-30T10:44:35.893Z,101936.19
2022-11-30T10:45:44.386Z,101934.38
2022-11-30T10:46:56.133Z,101927.31
2022-11-30T10:48:04.736Z,101919.41
2022-11-30T10:49:15.398Z,101923.75
2022-11-30T10:50:18.688Z,101926.41
2022-11-30T10:51:21.553Z,101922.81
2022-11-30T10:52:27.888Z,101927.16
2022-11-30T10:53:30.478Z,101925.38
2022-11-30T10:54:34.174Z,101928.78
2022-11-30T10:55:41.509Z,101931.38
2022-11-30T10:56:44.175Z,101922.53
2022-11-30T10:57:49.445Z,101924.03
2022-11-30T10:58:57.717Z,101922.19
2022-11-30T11:00:05.113Z,101930.91
2022-11-30T11:01:09.933Z,101916.75
2022-11-30T11:02:42.378Z,101921.13
2022-11-30T11:03:45.145Z,101920.16
2022-11-30T11:04:49.208Z,101920.16
2022-11-30T11:08:26.216Z,101921.13
2022-11-30T11:09:37.481Z,101918.47
2022-11-30T11:10:46.252Z,101918.47
2022-11-30T11:11:54.799Z,101916.75
2022-11-30T11:12:57.277Z,101915.88
2022-11-30T11:14:16.090Z,101917.63
2022-11-30T11:15:22.130Z,101915.88
2022-11-30T11:16:24.760Z,101916.75
2022-11-30T11:17:28.900Z,101919.28
2022-11-30T11:18:32.751Z,101921.88
2022-11-30T11:19:38.513Z,101916.50
2022-11-30T11:20:43.269Z,101918.16
2022-11-30T11:21:49.477Z,101916.25
2022-11-30T11:22:52.013Z,101921.41
2022-11-30T11:23:56.689Z,101923.97
2022-11-30T11:25:12.130Z,101919.38
2022-11-30T11:26:18.593Z,101916.56
2022-11-30T11:27:26.539Z,101923.47
2022-11-30T11:28:30.175Z,101921.59
2022-11-30T11:29:35.352Z,101923.31
2022-11-30T11:30:38.382Z,101918.88
2022-11-30T11:31:44.113Z,101917.97
2022-11-30T11:32:59.091Z,101922.28
2022-11-30T11:34:01.722Z,101922.28
2022-11-30T11:35:04.196Z,101927.59
2022-11-30T11:36:16.379Z,101925.03
2022-11-30T11:37:21.720Z,101915.31
2022-11-30T11:38:27.285Z,101924.19
2022-11-30T11:39:28.828Z,101927.59
2022-11-30T11:40:31.855Z,101930.22
2022-11-30T11:41:37.333Z,101925.75
2022-11-30T11:42:47.051Z,101931.03
2022-11-30T11:44:05.129Z,101931.03
2022-11-30T11:45:18.356Z,101930.06
2022-11-30T11:46:20.908Z,101925.63
2022-11-30T11:47:26.394Z,101923.84
2022-11-30T11:48:33.560Z,101930.00
2022-11-30T11:49:37.871Z,101924.63
2022-11-30T11:52:15.193Z,101930.69
2022-11-30T11:53:24.825Z,101927.25
2022-11-30T11:54:32.414Z,101927.09
2022-11-30T11:55:35.862Z,101928.06
2022-11-30T11:56:38.758Z,101928.91
2022-11-30T11:57:45.508Z,101928.81
2022-11-30T11:58:51.933Z,101932.25
2022-11-30T12:00:01.832Z,101923.44
2022-11-30T12:01:38.616Z,101928.66
2022-11-30T12:02:40.029Z,101925.06
2022-11-30T12:03:51.386Z,101930.19
2022-11-30T12:04:57.609Z,101931.06
2022-11-30T12:06:06.078Z,101924.06
2022-11-30T12:07:20.215Z,101930.19
2022-11-30T12:08:29.057Z,101933.59
2022-11-30T12:09:37.421Z,101937.09
2022-11-30T12:10:51.709Z,101938.06
2022-11-30T12:11:55.990Z,101929.34
2022-11-30T12:12:59.180Z,101933.78
2022-11-30T12:14:09.225Z,101938.13
2022-11-30T12:15:12.333Z,101939.06
2022-11-30T12:16:33.887Z,101934.56
2022-11-30T12:17:49.341Z,101936.25
2022-11-30T12:18:58.922Z,101928.25
2022-11-30T12:20:14.260Z,101931.81
2022-11-30T12:21:22.026Z,101928.31
2022-11-30T12:22:43.429Z,101930.97